sensor_id;sensor_type;location;lat;lon;timestamp;P1;durP1;ratioP1;P2;durP2;ratioP2
6406;SDS011;3236;51.022;6.818;2024-03-29T00:00:00;2.78;;;0.82;;
6406;SDS011;3236;51.022;6.818;2024-03-29T00:02:27;3.92;;;1.08;;
6406;SDS011;3236;51.022;6.818;2024-03-29T00:04:53;4.15;;;0.82;;
6406;SDS011;3236;51.022;6.818;2024-03-29T00:07:20;5.38;;;0.93;;
6406;SDS011;3236;51.022;6.818;2024-03-29T00:09:46;7.50;;;1.08;;
6406;SDS011;3236;51.022;6.818;2024-03-29T00:12:12;2.72;;;0.98;;
6406;SDS011;3236;51.022;6.818;2024-03-29T00:14:40;5.68;;;1.10;;
6406;SDS011;3236;51.022;6.818;2024-03-29T00:17:06;3.17;;;1.08;;
6406;SDS011;3236;51.022;6.818;2024-03-29T00:19:32;2.33;;;0.93;;
6406;SDS011;3236;51.022;6.818;2024-03-29T00:21:58;2.45;;;1.02;;
6406;SDS011;3236;51.022;6.818;2024-03-29T00:24:25;8.32;;;1.83;;
6406;SDS011;3236;51.022;6.818;2024-03-29T00:26:51;8.07;;;5.32;;
6406;SDS011;3236;51.022;6.818;2024-03-29T00:29:17;9.82;;;6.65;;
6406;SDS011;3236;51.022;6.818;2024-03-29T00:31:45;16.67;;;9.10;;
6406;SDS011;3236;51.022;6.818;2024-03-29T00:34:11;10.70;;;7.20;;
6406;SDS011;3236;51.022;6.818;2024-03-29T00:36:37;14.40;;;7.50;;
6406;SDS011;3236;51.022;6.818;2024-03-29T00:39:03;11.27;;;6.43;;
6406;SDS011;3236;51.022;6.818;2024-03-29T00:41:29;12.10;;;5.95;;
6406;SDS011;3236;51.022;6.818;2024-03-29T00:43:56;11.60;;;5.13;;
6406;SDS011;3236;51.022;6.818;2024-03-29T00:46:22;9.50;;;3.75;;
6406;SDS011;3236;51.022;6.818;2024-03-29T00:48:50;4.97;;;3.30;;
6406;SDS011;3236;51.022;6.818;2024-03-29T00:51:16;5.72;;;2.38;;
6406;SDS011;3236;51.022;6.818;2024-03-29T00:53:42;7.15;;;2.80;;
6406;SDS011;3236;51.022;6.818;2024-03-29T00:56:08;5.07;;;2.00;;
6406;SDS011;3236;51.022;6.818;2024-03-29T00:58:34;4.10;;;1.83;;
6406;SDS011;3236;51.022;6.818;2024-03-29T01:01:03;2.85;;;1.30;;
6406;SDS011;3236;51.022;6.818;2024-03-29T01:03:29;4.30;;;1.17;;
6406;SDS011;3236;51.022;6.818;2024-03-29T01:05:57;6.93;;;1.10;;
6406;SDS011;3236;51.022;6.818;2024-03-29T01:08:23;6.22;;;1.27;;
6406;SDS011;3236;51.022;6.818;2024-03-29T01:11:11;3.08;;;1.00;;
6406;SDS011;3236;51.022;6.818;2024-03-29T01:14:11;2.83;;;1.00;;
6406;SDS011;3236;51.022;6.818;2024-03-29T01:16:46;2.60;;;0.90;;
6406;SDS011;3236;51.022;6.818;2024-03-29T01:19:12;3.28;;;0.90;;
6406;SDS011;3236;51.022;6.818;2024-03-29T01:21:40;3.25;;;0.70;;
6406;SDS011;3236;51.022;6.818;2024-03-29T01:24:06;3.72;;;1.20;;
6406;SDS011;3236;51.022;6.818;2024-03-29T01:26:32;4.63;;;1.00;;
6406;SDS011;3236;51.022;6.818;2024-03-29T01:28:58;5.28;;;0.95;;
6406;SDS011;3236;51.022;6.818;2024-03-29T01:31:25;2.53;;;0.80;;
6406;SDS011;3236;51.022;6.818;2024-03-29T01:33:57;2.28;;;0.80;;
6406;SDS011;3236;51.022;6.818;2024-03-29T01:36:26;1.80;;;0.80;;
6406;SDS011;3236;51.022;6.818;2024-03-29T01:38:56;8.38;;;1.30;;
6406;SDS011;3236;51.022;6.818;2024-03-29T01:41:37;1.33;;;0.73;;
6406;SDS011;3236;51.022;6.818;2024-03-29T01:44:05;5.70;;;0.90;;
6406;SDS011;3236;51.022;6.818;2024-03-29T01:46:34;2.90;;;1.00;;
6406;SDS011;3236;51.022;6.818;2024-03-29T01:49:13;1.55;;;0.73;;
6406;SDS011;3236;51.022;6.818;2024-03-29T01:51:40;3.95;;;0.80;;
6406;SDS011;3236;51.022;6.818;2024-03-29T01:54:09;3.45;;;1.10;;
6406;SDS011;3236;51.022;6.818;2024-03-29T01:56:37;1.10;;;0.75;;
6406;SDS011;3236;51.022;6.818;2024-03-29T01:59:08;2.28;;;0.75;;
6406;SDS011;3236;51.022;6.818;2024-03-29T02:01:40;3.28;;;0.93;;
6406;SDS011;3236;51.022;6.818;2024-03-29T02:04:07;1.35;;;0.75;;
6406;SDS011;3236;51.022;6.818;2024-03-29T02:06:34;4.30;;;1.20;;
6406;SDS011;3236;51.022;6.818;2024-03-29T02:09:02;5.78;;;0.90;;
6406;SDS011;3236;51.022;6.818;2024-03-29T02:11:30;5.30;;;1.10;;
6406;SDS011;3236;51.022;6.818;2024-03-29T02:13:57;3.30;;;0.90;;
6406;SDS011;3236;51.022;6.818;2024-03-29T02:16:23;4.78;;;1.15;;
6406;SDS011;3236;51.022;6.818;2024-03-29T02:18:51;4.63;;;1.10;;
6406;SDS011;3236;51.022;6.818;2024-03-29T02:21:18;6.57;;;1.40;;
6406;SDS011;3236;51.022;6.818;2024-03-29T02:23:46;4.05;;;1.10;;
6406;SDS011;3236;51.022;6.818;2024-03-29T02:26:17;4.63;;;1.00;;
6406;SDS011;3236;51.022;6.818;2024-03-29T02:28:49;2.60;;;0.90;;
6406;SDS011;3236;51.022;6.818;2024-03-29T02:31:17;3.00;;;1.20;;
6406;SDS011;3236;51.022;6.818;2024-03-29T02:33:44;2.47;;;0.77;;
6406;SDS011;3236;51.022;6.818;2024-03-29T02:36:12;4.05;;;1.13;;
6406;SDS011;3236;51.022;6.818;2024-03-29T02:38:39;5.18;;;1.35;;
6406;SDS011;3236;51.022;6.818;2024-03-29T02:41:06;3.50;;;1.00;;
6406;SDS011;3236;51.022;6.818;2024-03-29T02:43:34;5.50;;;1.30;;
6406;SDS011;3236;51.022;6.818;2024-03-29T02:46:40;4.55;;;1.13;;
6406;SDS011;3236;51.022;6.818;2024-03-29T02:49:02;3.00;;;1.15;;
6406;SDS011;3236;51.022;6.818;2024-03-29T02:51:31;4.85;;;1.10;;
6406;SDS011;3236;51.022;6.818;2024-03-29T02:53:58;4.63;;;1.15;;
6406;SDS011;3236;51.022;6.818;2024-03-29T02:56:24;4.75;;;1.00;;
6406;SDS011;3236;51.022;6.818;2024-03-29T02:58:54;4.35;;;1.00;;
6406;SDS011;3236;51.022;6.818;2024-03-29T03:01:20;4.30;;;1.15;;
6406;SDS011;3236;51.022;6.818;2024-03-29T03:03:47;4.10;;;1.00;;
6406;SDS011;3236;51.022;6.818;2024-03-29T03:06:17;2.97;;;1.10;;
6406;SDS011;3236;51.022;6.818;2024-03-29T03:08:44;2.15;;;0.80;;
6406;SDS011;3236;51.022;6.818;2024-03-29T03:11:29;3.13;;;0.90;;
6406;SDS011;3236;51.022;6.818;2024-03-29T03:13:57;3.72;;;0.90;;
6406;SDS011;3236;51.022;6.818;2024-03-29T03:16:24;2.80;;;0.95;;
6406;SDS011;3236;51.022;6.818;2024-03-29T03:18:51;8.38;;;1.42;;
6406;SDS011;3236;51.022;6.818;2024-03-29T03:21:18;2.08;;;0.70;;
6406;SDS011;3236;51.022;6.818;2024-03-29T03:23:46;6.28;;;1.17;;
6406;SDS011;3236;51.022;6.818;2024-03-29T03:26:13;2.28;;;0.98;;
6406;SDS011;3236;51.022;6.818;2024-03-29T03:28:39;2.50;;;0.90;;
6406;SDS011;3236;51.022;6.818;2024-03-29T03:31:08;3.92;;;1.10;;
6406;SDS011;3236;51.022;6.818;2024-03-29T03:33:34;2.13;;;0.95;;
6406;SDS011;3236;51.022;6.818;2024-03-29T03:36:09;2.63;;;0.88;;
6406;SDS011;3236;51.022;6.818;2024-03-29T03:38:36;4.78;;;1.08;;
6406;SDS011;3236;51.022;6.818;2024-03-29T03:41:04;1.73;;;1.08;;
6406;SDS011;3236;51.022;6.818;2024-03-29T03:43:31;3.13;;;1.05;;
6406;SDS011;3236;51.022;6.818;2024-03-29T03:45:59;5.47;;;1.45;;
6406;SDS011;3236;51.022;6.818;2024-03-29T03:48:27;3.35;;;1.00;;
6406;SDS011;3236;51.022;6.818;2024-03-29T03:50:54;4.63;;;1.13;;
6406;SDS011;3236;51.022;6.818;2024-03-29T03:53:23;6.45;;;1.05;;
6406;SDS011;3236;51.022;6.818;2024-03-29T03:55:48;4.57;;;1.00;;
6406;SDS011;3236;51.022;6.818;2024-03-29T03:58:16;1.83;;;0.85;;
6406;SDS011;3236;51.022;6.818;2024-03-29T04:00:42;3.15;;;1.10;;
6406;SDS011;3236;51.022;6.818;2024-03-29T04:03:24;3.60;;;1.20;;
6406;SDS011;3236;51.022;6.818;2024-03-29T04:05:50;2.72;;;1.00;;
6406;SDS011;3236;51.022;6.818;2024-03-29T04:08:18;4.28;;;0.85;;
6406;SDS011;3236;51.022;6.818;2024-03-29T04:10:45;4.93;;;1.10;;
6406;SDS011;3236;51.022;6.818;2024-03-29T04:13:19;3.72;;;0.90;;
6406;SDS011;3236;51.022;6.818;2024-03-29T04:15:45;2.60;;;1.05;;
6406;SDS011;3236;51.022;6.818;2024-03-29T04:18:12;2.92;;;1.38;;
6406;SDS011;3236;51.022;6.818;2024-03-29T04:20:41;3.13;;;1.00;;
6406;SDS011;3236;51.022;6.818;2024-03-29T04:23:08;6.47;;;1.30;;
6406;SDS011;3236;51.022;6.818;2024-03-29T04:25:35;5.45;;;1.30;;
6406;SDS011;3236;51.022;6.818;2024-03-29T04:28:03;3.67;;;1.00;;
6406;SDS011;3236;51.022;6.818;2024-03-29T04:30:30;5.35;;;1.00;;
6406;SDS011;3236;51.022;6.818;2024-03-29T04:32:57;4.25;;;1.40;;
6406;SDS011;3236;51.022;6.818;2024-03-29T04:35:23;7.07;;;1.23;;
6406;SDS011;3236;51.022;6.818;2024-03-29T04:37:50;8.23;;;1.27;;
6406;SDS011;3236;51.022;6.818;2024-03-29T04:40:18;5.20;;;1.00;;
6406;SDS011;3236;51.022;6.818;2024-03-29T04:42:50;2.95;;;1.20;;
6406;SDS011;3236;51.022;6.818;2024-03-29T04:45:19;4.57;;;1.02;;
6406;SDS011;3236;51.022;6.818;2024-03-29T04:47:46;4.50;;;1.10;;
6406;SDS011;3236;51.022;6.818;2024-03-29T04:50:13;3.42;;;0.90;;
6406;SDS011;3236;51.022;6.818;2024-03-29T04:52:40;4.68;;;1.77;;
6406;SDS011;3236;51.022;6.818;2024-03-29T04:55:08;8.70;;;1.75;;
6406;SDS011;3236;51.022;6.818;2024-03-29T04:57:35;6.03;;;1.10;;
6406;SDS011;3236;51.022;6.818;2024-03-29T05:00:02;3.58;;;0.90;;
6406;SDS011;3236;51.022;6.818;2024-03-29T05:02:31;6.82;;;1.00;;
6406;SDS011;3236;51.022;6.818;2024-03-29T05:05:02;2.72;;;1.15;;
6406;SDS011;3236;51.022;6.818;2024-03-29T05:09:56;3.55;;;1.55;;
6406;SDS011;3236;51.022;6.818;2024-03-29T05:12:24;5.20;;;1.30;;
6406;SDS011;3236;51.022;6.818;2024-03-29T05:14:51;7.13;;;1.42;;
6406;SDS011;3236;51.022;6.818;2024-03-29T05:17:19;5.68;;;1.20;;
6406;SDS011;3236;51.022;6.818;2024-03-29T05:19:52;1.83;;;1.20;;
6406;SDS011;3236;51.022;6.818;2024-03-29T05:22:19;2.83;;;1.20;;
6406;SDS011;3236;51.022;6.818;2024-03-29T05:24:46;5.10;;;1.90;;
6406;SDS011;3236;51.022;6.818;2024-03-29T05:27:13;5.38;;;1.40;;
6406;SDS011;3236;51.022;6.818;2024-03-29T05:29:40;3.63;;;1.40;;
6406;SDS011;3236;51.022;6.818;2024-03-29T05:32:07;7.40;;;1.35;;
6406;SDS011;3236;51.022;6.818;2024-03-29T05:34:35;5.25;;;1.20;;
6406;SDS011;3236;51.022;6.818;2024-03-29T05:37:03;4.60;;;1.17;;
6406;SDS011;3236;51.022;6.818;2024-03-29T05:39:33;5.80;;;1.13;;
6406;SDS011;3236;51.022;6.818;2024-03-29T05:42:00;6.45;;;1.67;;
6406;SDS011;3236;51.022;6.818;2024-03-29T05:44:27;1.63;;;0.95;;
6406;SDS011;3236;51.022;6.818;2024-03-29T05:46:55;3.63;;;1.20;;
6406;SDS011;3236;51.022;6.818;2024-03-29T05:49:22;4.47;;;1.30;;
6406;SDS011;3236;51.022;6.818;2024-03-29T05:51:49;3.58;;;1.30;;
6406;SDS011;3236;51.022;6.818;2024-03-29T05:54:21;7.18;;;1.15;;
6406;SDS011;3236;51.022;6.818;2024-03-29T05:56:48;4.07;;;1.65;;
6406;SDS011;3236;51.022;6.818;2024-03-29T05:59:15;4.85;;;1.45;;
6406;SDS011;3236;51.022;6.818;2024-03-29T06:01:42;4.25;;;1.20;;
6406;SDS011;3236;51.022;6.818;2024-03-29T06:04:10;3.83;;;1.20;;
6406;SDS011;3236;51.022;6.818;2024-03-29T06:06:41;1.38;;;1.05;;
6406;SDS011;3236;51.022;6.818;2024-03-29T06:09:08;4.07;;;1.10;;
6406;SDS011;3236;51.022;6.818;2024-03-29T06:11:37;5.22;;;1.20;;
6406;SDS011;3236;51.022;6.818;2024-03-29T06:14:11;6.03;;;1.30;;
6406;SDS011;3236;51.022;6.818;2024-03-29T06:16:55;2.88;;;1.42;;
6406;SDS011;3236;51.022;6.818;2024-03-29T06:19:40;2.08;;;1.20;;
6406;SDS011;3236;51.022;6.818;2024-03-29T06:22:07;6.90;;;1.95;;
6406;SDS011;3236;51.022;6.818;2024-03-29T06:24:34;2.03;;;1.27;;
6406;SDS011;3236;51.022;6.818;2024-03-29T06:27:05;8.90;;;1.40;;
6406;SDS011;3236;51.022;6.818;2024-03-29T06:29:32;5.40;;;1.33;;
6406;SDS011;3236;51.022;6.818;2024-03-29T06:31:59;3.35;;;1.45;;
6406;SDS011;3236;51.022;6.818;2024-03-29T06:34:27;3.25;;;1.27;;
6406;SDS011;3236;51.022;6.818;2024-03-29T06:36:56;4.72;;;1.40;;
6406;SDS011;3236;51.022;6.818;2024-03-29T06:39:23;5.50;;;1.58;;
6406;SDS011;3236;51.022;6.818;2024-03-29T06:41:51;4.75;;;1.63;;
6406;SDS011;3236;51.022;6.818;2024-03-29T06:44:19;4.22;;;1.20;;
6406;SDS011;3236;51.022;6.818;2024-03-29T06:46:46;4.13;;;1.30;;
6406;SDS011;3236;51.022;6.818;2024-03-29T06:49:14;4.10;;;1.40;;
6406;SDS011;3236;51.022;6.818;2024-03-29T06:51:41;7.03;;;1.40;;
6406;SDS011;3236;51.022;6.818;2024-03-29T06:54:09;5.55;;;1.40;;
6406;SDS011;3236;51.022;6.818;2024-03-29T06:56:37;1.27;;;1.15;;
6406;SDS011;3236;51.022;6.818;2024-03-29T06:59:04;5.82;;;1.45;;
6406;SDS011;3236;51.022;6.818;2024-03-29T07:01:33;6.07;;;1.33;;
6406;SDS011;3236;51.022;6.818;2024-03-29T07:04:01;1.38;;;1.08;;
6406;SDS011;3236;51.022;6.818;2024-03-29T07:06:28;2.08;;;1.20;;
6406;SDS011;3236;51.022;6.818;2024-03-29T07:08:55;2.75;;;1.55;;
6406;SDS011;3236;51.022;6.818;2024-03-29T07:11:23;3.00;;;1.30;;
6406;SDS011;3236;51.022;6.818;2024-03-29T07:13:50;7.35;;;1.33;;
6406;SDS011;3236;51.022;6.818;2024-03-29T07:16:17;2.80;;;1.30;;
6406;SDS011;3236;51.022;6.818;2024-03-29T07:18:46;2.47;;;0.98;;
6406;SDS011;3236;51.022;6.818;2024-03-29T07:21:13;2.80;;;1.15;;
6406;SDS011;3236;51.022;6.818;2024-03-29T07:23:40;1.95;;;0.90;;
6406;SDS011;3236;51.022;6.818;2024-03-29T07:26:07;2.60;;;1.00;;
6406;SDS011;3236;51.022;6.818;2024-03-29T07:28:36;2.90;;;1.23;;
6406;SDS011;3236;51.022;6.818;2024-03-29T07:31:05;4.28;;;1.10;;
6406;SDS011;3236;51.022;6.818;2024-03-29T07:33:36;1.33;;;0.90;;
6406;SDS011;3236;51.022;6.818;2024-03-29T07:36:05;2.47;;;1.10;;
6406;SDS011;3236;51.022;6.818;2024-03-29T07:38:34;2.30;;;1.30;;
6406;SDS011;3236;51.022;6.818;2024-03-29T07:41:01;2.05;;;1.20;;
6406;SDS011;3236;51.022;6.818;2024-03-29T07:43:36;1.52;;;1.00;;
6406;SDS011;3236;51.022;6.818;2024-03-29T07:46:05;2.58;;;0.90;;
6406;SDS011;3236;51.022;6.818;2024-03-29T07:48:33;3.92;;;1.20;;
6406;SDS011;3236;51.022;6.818;2024-03-29T07:51:01;1.20;;;1.10;;
6406;SDS011;3236;51.022;6.818;2024-03-29T07:53:29;2.33;;;1.02;;
6406;SDS011;3236;51.022;6.818;2024-03-29T07:55:57;1.77;;;1.02;;
6406;SDS011;3236;51.022;6.818;2024-03-29T07:58:24;3.15;;;1.00;;
6406;SDS011;3236;51.022;6.818;2024-03-29T08:00:52;3.17;;;1.17;;
6406;SDS011;3236;51.022;6.818;2024-03-29T08:03:19;10.70;;;3.08;;
6406;SDS011;3236;51.022;6.818;2024-03-29T08:05:55;2.30;;;1.02;;
6406;SDS011;3236;51.022;6.818;2024-03-29T08:08:23;1.80;;;1.10;;
6406;SDS011;3236;51.022;6.818;2024-03-29T08:10:53;1.70;;;1.17;;
6406;SDS011;3236;51.022;6.818;2024-03-29T08:13:21;4.30;;;1.00;;
6406;SDS011;3236;51.022;6.818;2024-03-29T08:15:55;1.45;;;1.10;;
6406;SDS011;3236;51.022;6.818;2024-03-29T08:18:45;1.20;;;0.75;;
6406;SDS011;3236;51.022;6.818;2024-03-29T08:21:12;2.70;;;0.90;;
6406;SDS011;3236;51.022;6.818;2024-03-29T08:23:40;4.07;;;1.05;;
6406;SDS011;3236;51.022;6.818;2024-03-29T08:26:13;2.15;;;0.80;;
6406;SDS011;3236;51.022;6.818;2024-03-29T08:28:40;1.92;;;0.50;;
6406;SDS011;3236;51.022;6.818;2024-03-29T08:31:07;2.65;;;0.82;;
6406;SDS011;3236;51.022;6.818;2024-03-29T08:33:34;0.73;;;0.55;;
6406;SDS011;3236;51.022;6.818;2024-03-29T08:36:04;2.70;;;0.90;;
6406;SDS011;3236;51.022;6.818;2024-03-29T08:38:31;0.68;;;0.63;;
6406;SDS011;3236;51.022;6.818;2024-03-29T08:40:59;0.47;;;0.47;;
6406;SDS011;3236;51.022;6.818;2024-03-29T08:43:27;1.15;;;0.70;;
6406;SDS011;3236;51.022;6.818;2024-03-29T08:46:00;1.38;;;0.93;;
6406;SDS011;3236;51.022;6.818;2024-03-29T08:48:27;2.50;;;0.60;;
6406;SDS011;3236;51.022;6.818;2024-03-29T08:50:55;2.28;;;0.70;;
6406;SDS011;3236;51.022;6.818;2024-03-29T08:53:22;2.08;;;0.80;;
6406;SDS011;3236;51.022;6.818;2024-03-29T08:55:52;0.90;;;0.70;;
6406;SDS011;3236;51.022;6.818;2024-03-29T08:58:19;3.20;;;0.50;;
6406;SDS011;3236;51.022;6.818;2024-03-29T09:00:54;1.00;;;0.70;;
6406;SDS011;3236;51.022;6.818;2024-03-29T09:03:21;1.70;;;0.98;;
6406;SDS011;3236;51.022;6.818;2024-03-29T09:05:49;1.63;;;0.73;;
6406;SDS011;3236;51.022;6.818;2024-03-29T09:08:16;1.38;;;0.70;;
6406;SDS011;3236;51.022;6.818;2024-03-29T09:10:44;1.48;;;0.57;;
6406;SDS011;3236;51.022;6.818;2024-03-29T09:13:11;2.80;;;0.80;;
6406;SDS011;3236;51.022;6.818;2024-03-29T09:15:38;1.27;;;0.70;;
6406;SDS011;3236;51.022;6.818;2024-03-29T09:18:07;0.70;;;0.70;;
6406;SDS011;3236;51.022;6.818;2024-03-29T09:20:42;1.85;;;0.82;;
6406;SDS011;3236;51.022;6.818;2024-03-29T09:23:10;0.52;;;0.50;;
6406;SDS011;3236;51.022;6.818;2024-03-29T09:25:41;1.63;;;0.60;;
6406;SDS011;3236;51.022;6.818;2024-03-29T09:28:10;1.98;;;1.08;;
6406;SDS011;3236;51.022;6.818;2024-03-29T09:30:38;0.60;;;0.57;;
6406;SDS011;3236;51.022;6.818;2024-03-29T09:33:05;2.13;;;0.70;;
6406;SDS011;3236;51.022;6.818;2024-03-29T09:35:35;1.85;;;0.60;;
6406;SDS011;3236;51.022;6.818;2024-03-29T09:38:03;1.08;;;0.60;;
6406;SDS011;3236;51.022;6.818;2024-03-29T09:40:30;0.93;;;0.60;;
6406;SDS011;3236;51.022;6.818;2024-03-29T09:42:59;0.80;;;0.60;;
6406;SDS011;3236;51.022;6.818;2024-03-29T09:45:28;3.03;;;1.00;;
6406;SDS011;3236;51.022;6.818;2024-03-29T09:48:00;0.80;;;0.60;;
6406;SDS011;3236;51.022;6.818;2024-03-29T09:50:29;3.00;;;0.60;;
6406;SDS011;3236;51.022;6.818;2024-03-29T09:52:58;0.65;;;0.65;;
6406;SDS011;3236;51.022;6.818;2024-03-29T09:55:26;0.82;;;0.60;;
6406;SDS011;3236;51.022;6.818;2024-03-29T09:57:54;0.75;;;0.60;;
6406;SDS011;3236;51.022;6.818;2024-03-29T10:00:22;0.30;;;0.30;;
6406;SDS011;3236;51.022;6.818;2024-03-29T10:02:50;1.40;;;0.60;;
6406;SDS011;3236;51.022;6.818;2024-03-29T10:05:21;1.65;;;0.60;;
6406;SDS011;3236;51.022;6.818;2024-03-29T10:07:50;3.08;;;0.88;;
6406;SDS011;3236;51.022;6.818;2024-03-29T10:10:24;1.08;;;0.65;;
6406;SDS011;3236;51.022;6.818;2024-03-29T10:12:52;0.63;;;0.50;;
6406;SDS011;3236;51.022;6.818;2024-03-29T10:15:19;0.60;;;0.60;;
6406;SDS011;3236;51.022;6.818;2024-03-29T10:17:49;5.45;;;1.10;;
6406;SDS011;3236;51.022;6.818;2024-03-29T10:20:18;1.65;;;0.50;;
6406;SDS011;3236;51.022;6.818;2024-03-29T10:22:47;1.40;;;0.30;;
6406;SDS011;3236;51.022;6.818;2024-03-29T10:25:18;1.92;;;0.57;;
6406;SDS011;3236;51.022;6.818;2024-03-29T10:27:47;1.65;;;0.40;;
6406;SDS011;3236;51.022;6.818;2024-03-29T10:30:14;2.78;;;0.52;;
6406;SDS011;3236;51.022;6.818;2024-03-29T10:32:44;3.75;;;0.88;;
6406;SDS011;3236;51.022;6.818;2024-03-29T10:35:11;3.63;;;0.60;;
6406;SDS011;3236;51.022;6.818;2024-03-29T10:37:41;0.68;;;0.47;;
6406;SDS011;3236;51.022;6.818;2024-03-29T10:40:15;0.57;;;0.40;;
6406;SDS011;3236;51.022;6.818;2024-03-29T10:42:44;0.60;;;0.40;;
6406;SDS011;3236;51.022;6.818;2024-03-29T10:45:14;1.00;;;0.50;;
6406;SDS011;3236;51.022;6.818;2024-03-29T10:47:45;0.60;;;0.60;;
6406;SDS011;3236;51.022;6.818;2024-03-29T10:50:12;1.15;;;0.52;;
6406;SDS011;3236;51.022;6.818;2024-03-29T10:52:40;2.08;;;0.50;;
6406;SDS011;3236;51.022;6.818;2024-03-29T10:55:08;0.70;;;0.52;;
6406;SDS011;3236;51.022;6.818;2024-03-29T10:57:38;0.60;;;0.47;;
6406;SDS011;3236;51.022;6.818;2024-03-29T11:00:11;0.93;;;0.52;;
6406;SDS011;3236;51.022;6.818;2024-03-29T11:02:43;1.55;;;0.90;;
6406;SDS011;3236;51.022;6.818;2024-03-29T11:05:14;0.50;;;0.50;;
6406;SDS011;3236;51.022;6.818;2024-03-29T11:07:42;5.97;;;0.60;;
6406;SDS011;3236;51.022;6.818;2024-03-29T11:10:13;0.75;;;0.50;;
6406;SDS011;3236;51.022;6.818;2024-03-29T11:12:51;3.33;;;0.98;;
6406;SDS011;3236;51.022;6.818;2024-03-29T11:15:29;1.25;;;0.57;;
6406;SDS011;3236;51.022;6.818;2024-03-29T11:20:24;1.55;;;0.52;;
6406;SDS011;3236;51.022;6.818;2024-03-29T11:23:02;2.55;;;0.60;;
6406;SDS011;3236;51.022;6.818;2024-03-29T11:25:41;1.13;;;0.60;;
6406;SDS011;3236;51.022;6.818;2024-03-29T11:28:11;1.27;;;0.65;;
6406;SDS011;3236;51.022;6.818;2024-03-29T11:30:42;3.30;;;0.60;;
6406;SDS011;3236;51.022;6.818;2024-03-29T11:33:28;0.68;;;0.52;;
6406;SDS011;3236;51.022;6.818;2024-03-29T11:35:57;1.27;;;0.50;;
6406;SDS011;3236;51.022;6.818;2024-03-29T11:38:31;0.75;;;0.50;;
6406;SDS011;3236;51.022;6.818;2024-03-29T11:41:01;0.75;;;0.40;;
6406;SDS011;3236;51.022;6.818;2024-03-29T11:43:40;1.33;;;0.30;;
6406;SDS011;3236;51.022;6.818;2024-03-29T11:46:13;0.40;;;0.40;;
6406;SDS011;3236;51.022;6.818;2024-03-29T11:48:41;0.65;;;0.40;;
6406;SDS011;3236;51.022;6.818;2024-03-29T11:51:09;2.15;;;0.40;;
6406;SDS011;3236;51.022;6.818;2024-03-29T11:53:39;0.50;;;0.50;;
6406;SDS011;3236;51.022;6.818;2024-03-29T11:56:06;0.75;;;0.50;;
6406;SDS011;3236;51.022;6.818;2024-03-29T11:58:34;1.20;;;0.70;;
6406;SDS011;3236;51.022;6.818;2024-03-29T12:01:01;0.45;;;0.40;;
6406;SDS011;3236;51.022;6.818;2024-03-29T12:03:30;1.05;;;0.50;;
6406;SDS011;3236;51.022;6.818;2024-03-29T12:05:59;1.40;;;0.50;;
6406;SDS011;3236;51.022;6.818;2024-03-29T12:08:31;2.70;;;0.52;;
6406;SDS011;3236;51.022;6.818;2024-03-29T12:10:59;0.55;;;0.40;;
6406;SDS011;3236;51.022;6.818;2024-03-29T12:13:28;0.80;;;0.43;;
6406;SDS011;3236;51.022;6.818;2024-03-29T12:15:55;1.35;;;0.75;;
6406;SDS011;3236;51.022;6.818;2024-03-29T12:18:23;1.60;;;0.50;;
6406;SDS011;3236;51.022;6.818;2024-03-29T12:20:55;0.75;;;0.40;;
6406;SDS011;3236;51.022;6.818;2024-03-29T12:23:22;3.45;;;0.80;;
6406;SDS011;3236;51.022;6.818;2024-03-29T12:25:49;0.60;;;0.40;;
6406;SDS011;3236;51.022;6.818;2024-03-29T12:28:17;0.52;;;0.45;;
6406;SDS011;3236;51.022;6.818;2024-03-29T12:30:45;3.08;;;0.65;;
6406;SDS011;3236;51.022;6.818;2024-03-29T12:33:15;1.15;;;0.70;;
6406;SDS011;3236;51.022;6.818;2024-03-29T12:35:45;1.08;;;0.65;;
6406;SDS011;3236;51.022;6.818;2024-03-29T12:38:15;0.47;;;0.45;;
6406;SDS011;3236;51.022;6.818;2024-03-29T12:40:44;0.47;;;0.30;;
6406;SDS011;3236;51.022;6.818;2024-03-29T12:43:13;0.20;;;0.20;;
6406;SDS011;3236;51.022;6.818;2024-03-29T12:45:42;0.30;;;0.30;;
6406;SDS011;3236;51.022;6.818;2024-03-29T12:48:10;0.35;;;0.35;;
6406;SDS011;3236;51.022;6.818;2024-03-29T12:50:39;0.40;;;0.40;;
6406;SDS011;3236;51.022;6.818;2024-03-29T12:53:08;0.30;;;0.30;;
6406;SDS011;3236;51.022;6.818;2024-03-29T12:55:38;0.32;;;0.30;;
6406;SDS011;3236;51.022;6.818;2024-03-29T12:58:09;0.20;;;0.20;;
6406;SDS011;3236;51.022;6.818;2024-03-29T13:00:36;0.20;;;0.20;;
6406;SDS011;3236;51.022;6.818;2024-03-29T13:03:04;0.40;;;0.40;;
6406;SDS011;3236;51.022;6.818;2024-03-29T13:05:31;0.30;;;0.30;;
6406;SDS011;3236;51.022;6.818;2024-03-29T13:08:02;0.60;;;0.50;;
6406;SDS011;3236;51.022;6.818;2024-03-29T13:10:30;0.40;;;0.40;;
6406;SDS011;3236;51.022;6.818;2024-03-29T13:12:59;1.00;;;0.35;;
6406;SDS011;3236;51.022;6.818;2024-03-29T13:15:27;0.20;;;0.20;;
6406;SDS011;3236;51.022;6.818;2024-03-29T13:17:54;0.40;;;0.30;;
6406;SDS011;3236;51.022;6.818;2024-03-29T13:20:22;0.30;;;0.30;;
6406;SDS011;3236;51.022;6.818;2024-03-29T13:22:50;3.40;;;1.67;;
6406;SDS011;3236;51.022;6.818;2024-03-29T13:25:19;0.20;;;0.20;;
6406;SDS011;3236;51.022;6.818;2024-03-29T13:27:48;0.30;;;0.30;;
6406;SDS011;3236;51.022;6.818;2024-03-29T13:30:20;0.63;;;0.40;;
6406;SDS011;3236;51.022;6.818;2024-03-29T13:32:48;0.30;;;0.30;;
6406;SDS011;3236;51.022;6.818;2024-03-29T13:35:15;0.22;;;0.22;;
6406;SDS011;3236;51.022;6.818;2024-03-29T13:37:45;0.20;;;0.20;;
6406;SDS011;3236;51.022;6.818;2024-03-29T13:40:12;0.80;;;0.30;;
6406;SDS011;3236;51.022;6.818;2024-03-29T13:42:39;0.60;;;0.30;;
6406;SDS011;3236;51.022;6.818;2024-03-29T13:45:07;0.22;;;0.22;;
6406;SDS011;3236;51.022;6.818;2024-03-29T13:47:37;0.30;;;0.30;;
6406;SDS011;3236;51.022;6.818;2024-03-29T13:50:06;0.77;;;0.77;;
6406;SDS011;3236;51.022;6.818;2024-03-29T13:52:34;0.90;;;0.30;;
6406;SDS011;3236;51.022;6.818;2024-03-29T13:55:02;0.30;;;0.30;;
6406;SDS011;3236;51.022;6.818;2024-03-29T13:57:29;0.60;;;0.40;;
6406;SDS011;3236;51.022;6.818;2024-03-29T13:59:57;0.30;;;0.30;;
6406;SDS011;3236;51.022;6.818;2024-03-29T14:02:24;0.30;;;0.30;;
6406;SDS011;3236;51.022;6.818;2024-03-29T14:04:54;0.35;;;0.32;;
6406;SDS011;3236;51.022;6.818;2024-03-29T14:07:22;0.50;;;0.50;;
6406;SDS011;3236;51.022;6.818;2024-03-29T14:09:50;0.73;;;0.60;;
6406;SDS011;3236;51.022;6.818;2024-03-29T14:12:18;1.02;;;0.40;;
6406;SDS011;3236;51.022;6.818;2024-03-29T14:14:46;0.50;;;0.40;;
6406;SDS011;3236;51.022;6.818;2024-03-29T14:17:16;0.43;;;0.43;;
6406;SDS011;3236;51.022;6.818;2024-03-29T14:19:43;0.52;;;0.50;;
6406;SDS011;3236;51.022;6.818;2024-03-29T14:22:12;0.50;;;0.50;;
6406;SDS011;3236;51.022;6.818;2024-03-29T14:24:40;0.60;;;0.50;;
6406;SDS011;3236;51.022;6.818;2024-03-29T14:27:08;1.45;;;0.50;;
6406;SDS011;3236;51.022;6.818;2024-03-29T14:29:37;0.40;;;0.40;;
6406;SDS011;3236;51.022;6.818;2024-03-29T14:32:05;1.80;;;0.55;;
6406;SDS011;3236;51.022;6.818;2024-03-29T14:34:32;1.60;;;0.60;;
6406;SDS011;3236;51.022;6.818;2024-03-29T14:37:04;0.90;;;0.50;;
6406;SDS011;3236;51.022;6.818;2024-03-29T14:39:44;0.30;;;0.30;;
6406;SDS011;3236;51.022;6.818;2024-03-29T14:42:12;3.30;;;0.73;;
6406;SDS011;3236;51.022;6.818;2024-03-29T14:44:43;3.90;;;0.50;;
6406;SDS011;3236;51.022;6.818;2024-03-29T14:47:10;0.50;;;0.50;;
6406;SDS011;3236;51.022;6.818;2024-03-29T14:49:39;0.55;;;0.55;;
6406;SDS011;3236;51.022;6.818;2024-03-29T14:52:07;2.83;;;0.45;;
6406;SDS011;3236;51.022;6.818;2024-03-29T14:54:34;0.70;;;0.70;;
6406;SDS011;3236;51.022;6.818;2024-03-29T14:57:03;0.77;;;0.70;;
6406;SDS011;3236;51.022;6.818;2024-03-29T14:59:31;0.73;;;0.50;;
6406;SDS011;3236;51.022;6.818;2024-03-29T15:01:59;0.60;;;0.43;;
6406;SDS011;3236;51.022;6.818;2024-03-29T15:04:27;0.45;;;0.45;;
6406;SDS011;3236;51.022;6.818;2024-03-29T15:06:59;1.27;;;0.50;;
6406;SDS011;3236;51.022;6.818;2024-03-29T15:09:28;0.47;;;0.32;;
6406;SDS011;3236;51.022;6.818;2024-03-29T15:11:56;0.40;;;0.40;;
6406;SDS011;3236;51.022;6.818;2024-03-29T15:14:24;2.72;;;0.73;;
6406;SDS011;3236;51.022;6.818;2024-03-29T15:16:52;1.25;;;0.40;;
6406;SDS011;3236;51.022;6.818;2024-03-29T15:19:20;0.60;;;0.40;;
6406;SDS011;3236;51.022;6.818;2024-03-29T15:21:47;0.40;;;0.40;;
6406;SDS011;3236;51.022;6.818;2024-03-29T15:24:14;0.98;;;0.70;;
6406;SDS011;3236;51.022;6.818;2024-03-29T15:26:41;2.15;;;0.40;;
6406;SDS011;3236;51.022;6.818;2024-03-29T15:29:09;1.83;;;0.50;;